createdAt,value
2019-01-03T00:00:22.428Z,102191.14
2019-01-03T00:03:07.441Z,102193.18
2019-01-03T00:05:55.889Z,102193.40
2019-01-03T00:08:44.018Z,102193.88
2019-01-03T00:11:32.165Z,102196.92
2019-01-03T00:14:20.325Z,102199.30
2019-01-03T00:17:08.736Z,102196.90
2019-01-03T00:19:56.881Z,102195.64
2019-01-03T00:22:45.295Z,102193.38
2019-01-03T00:25:33.985Z,102197.65
2019-01-03T00:28:22.538Z,102191.90
2019-01-03T00:31:10.990Z,102191.75
2019-01-03T00:33:59.143Z,102195.91
2019-01-03T00:36:43.346Z,102207.65
2019-01-03T00:39:31.747Z,102201.39
2019-01-03T00:42:19.937Z,102201.72
2019-01-03T00:45:08.366Z,102207.09
2019-01-03T00:47:56.827Z,102206.47
2019-01-03T00:50:44.947Z,102200.66
2019-01-03T00:53:33.463Z,102194.05
2019-01-03T00:56:21.591Z,102192.59
2019-01-03T00:59:10.029Z,102186.04
2019-01-03T01:01:58.480Z,102180.21
2019-01-03T01:04:46.933Z,102181.83
2019-01-03T01:07:35.213Z,102183.38
2019-01-03T01:10:23.775Z,102189.84
2019-01-03T01:13:12.192Z,102195.30
2019-01-03T01:16:00.338Z,102201.87
2019-01-03T01:18:48.603Z,102201.34
2019-01-03T01:21:30.089Z,102208.39
2019-01-03T01:24:18.239Z,102210.98
2019-01-03T01:27:06.356Z,102218.78
2019-01-03T01:29:54.804Z,102213.49
2019-01-03T01:32:42.943Z,102209.91
2019-01-03T01:35:31.648Z,102216.80
2019-01-03T01:38:19.779Z,102220.59
2019-01-03T01:41:07.978Z,102226.58
2019-01-03T01:43:56.121Z,102229.20
2019-01-03T01:46:44.289Z,102238.12
2019-01-03T01:49:32.469Z,102228.45
2019-01-03T01:52:20.854Z,102231.28
2019-01-03T01:55:09.298Z,102231.05
2019-01-03T01:57:59.465Z,102227.96
2019-01-03T02:00:47.912Z,102227.05
2019-01-03T02:03:36.296Z,102239.41
2019-01-03T02:06:24.483Z,102235.17
2019-01-03T02:09:12.606Z,102230.47
2019-01-03T02:12:01.405Z,102230.16
2019-01-03T02:14:49.836Z,102232.08
2019-01-03T02:17:38.262Z,102233.14
2019-01-03T02:20:26.396Z,102233.58
2019-01-03T02:23:14.869Z,102241.50
2019-01-03T02:25:59.916Z,102250.95
2019-01-03T02:28:48.098Z,102244.74
2019-01-03T02:31:36.529Z,102253.25
2019-01-03T02:34:24.896Z,102244.48
2019-01-03T02:37:13.604Z,102250.04
2019-01-03T02:40:01.726Z,102245.49
2019-01-03T02:42:50.556Z,102235.98
2019-01-03T02:45:38.979Z,102228.59
2019-01-03T02:48:27.396Z,102220.31
2019-01-03T02:51:15.511Z,102210.09
2019-01-03T02:54:04.269Z,102217.36
2019-01-03T02:56:52.406Z,102225.92
2019-01-03T02:59:40.829Z,102225.12
2019-01-03T03:02:29.230Z,102224.09
2019-01-03T03:05:17.372Z,102220.29
2019-01-03T03:08:05.794Z,102221.44
2019-01-03T03:10:53.913Z,102215.61
2019-01-03T03:13:42.101Z,102214.75
2019-01-03T03:16:30.238Z,102211.75
2019-01-03T03:19:19.098Z,102203.62
2019-01-03T03:22:07.236Z,102195.59
2019-01-03T03:24:55.662Z,102182.02
2019-01-03T03:27:44.066Z,102177.84
2019-01-03T03:30:32.243Z,102170.78
2019-01-03T03:33:20.396Z,102175.61
2019-01-03T03:36:03.351Z,102168.80
2019-01-03T03:38:51.501Z,102167.78
2019-01-03T03:41:39.923Z,102160.36
2019-01-03T03:44:28.062Z,102149.21
2019-01-03T03:47:16.188Z,102156.34
2019-01-03T03:50:04.616Z,102164.70
2019-01-03T03:52:52.754Z,102152.98
2019-01-03T03:55:33.828Z,102146.52
2019-01-03T03:58:22.215Z,102134.52
2019-01-03T04:01:10.393Z,102137.55
2019-01-03T04:03:58.871Z,102142.45
2019-01-03T04:06:47.358Z,102144.08
2019-01-03T04:09:36.055Z,102147.28
2019-01-03T04:12:24.211Z,102147.21
2019-01-03T04:15:12.646Z,102153.41
2019-01-03T04:18:01.358Z,102151.91
2019-01-03T04:20:49.492Z,102155.86
2019-01-03T04:23:38.185Z,102148.71
2019-01-03T04:26:26.725Z,102139.14
2019-01-03T04:29:14.843Z,102140.81
2019-01-03T04:32:02.206Z,102151.52
2019-01-03T04:34:50.329Z,102152.98
2019-01-03T04:37:38.474Z,102165.02
2019-01-03T04:40:23.204Z,102166.77
2019-01-03T04:43:11.653Z,102158.20
2019-01-03T04:45:59.787Z,102153.74
2019-01-03T04:48:36.690Z,102159.78
2019-01-03T04:51:24.841Z,102160.64
2019-01-03T04:54:13.270Z,102156.13
2019-01-03T04:57:01.807Z,102154.23
2019-01-03T04:59:49.921Z,102151.91
2019-01-03T05:02:38.089Z,102147.05
2019-01-03T05:05:26.650Z,102147.94
2019-01-03T05:08:15.376Z,102144.80
2019-01-03T05:11:03.499Z,102153.52
2019-01-03T05:13:48.398Z,102150.16
2019-01-03T05:16:36.799Z,102148.30
2019-01-03T05:19:25.228Z,102142.91
2019-01-03T05:22:13.374Z,102146.08
2019-01-03T05:25:01.793Z,102132.86
2019-01-03T05:27:49.898Z,102143.05
2019-01-03T05:30:38.652Z,102133.56
2019-01-03T05:33:23.442Z,102140.82
2019-01-03T05:36:12.138Z,102147.68
2019-01-03T05:39:00.297Z,102150.59
2019-01-03T05:41:48.478Z,102155.30
2019-01-03T05:44:37.008Z,102150.95
2019-01-03T05:47:25.433Z,102151.24
2019-01-03T05:50:11.248Z,102147.88
2019-01-03T05:52:59.699Z,102143.66
2019-01-03T05:55:48.118Z,102145.88
2019-01-03T05:58:36.259Z,102144.12
2019-01-03T06:01:24.421Z,102148.40
2019-01-03T06:04:05.313Z,102149.61
2019-01-03T06:06:53.502Z,102153.23
2019-01-03T06:09:41.924Z,102149.51
2019-01-03T06:12:30.049Z,102155.71
2019-01-03T06:15:18.501Z,102158.68
2019-01-03T06:18:06.658Z,102175.34
2019-01-03T06:20:55.081Z,102168.22
2019-01-03T06:23:43.220Z,102171.36
2019-01-03T06:26:31.366Z,102176.59
2019-01-03T06:29:19.907Z,102166.66
2019-01-03T06:32:08.082Z,102162.34
2019-01-03T06:34:56.504Z,102163.36
2019-01-03T06:37:44.954Z,102159.47
2019-01-03T06:40:25.390Z,102173.06
2019-01-03T06:43:13.841Z,102177.27
2019-01-03T06:46:02.000Z,102178.25
2019-01-03T06:48:50.133Z,102173.26
2019-01-03T06:51:38.844Z,102172.21
2019-01-03T06:54:27.274Z,102178.65
2019-01-03T06:57:15.435Z,102181.12
2019-01-03T06:59:57.519Z,102179.14
2019-01-03T07:02:45.663Z,102186.88
2019-01-03T07:05:34.152Z,102195.11
2019-01-03T07:11:14.809Z,102192.56
2019-01-03T08:01:53.184Z,102216.09
2019-01-03T08:04:41.661Z,102207.05
2019-01-03T08:07:30.105Z,102211.75
2019-01-03T09:23:59.171Z,102246.19
2019-01-03T09:26:47.630Z,102248.30
2019-01-03T09:29:31.180Z,102251.33
2019-01-03T09:32:19.640Z,102247.52
2019-01-03T09:35:07.754Z,102250.59
2019-01-03T09:55:33.686Z,102253.27
2019-01-03T09:58:03.249Z,102247.90
2019-01-03T10:00:32.692Z,102256.30
2019-01-03T10:03:01.897Z,102254.34
2019-01-03T10:05:31.132Z,102247.97
2019-01-03T10:08:00.349Z,102251.02
2019-01-03T10:13:05.202Z,102254.77
2019-01-03T10:15:34.544Z,102247.59
2019-01-03T10:18:04.163Z,102245.75
2019-01-03T10:20:33.841Z,102242.75
2019-01-03T10:23:03.429Z,102238.55
2019-01-03T10:25:32.684Z,102236.36
2019-01-03T10:28:02.211Z,102239.34
2019-01-03T10:30:32.005Z,102224.56
2019-01-03T10:33:01.194Z,102231.95
2019-01-03T10:35:31.047Z,102222.70
2019-01-03T10:38:00.817Z,102216.48
2019-01-03T10:40:30.041Z,102215.52
2019-01-03T10:42:59.252Z,102214.25
2019-01-03T10:45:29.136Z,102217.84
2019-01-03T10:47:59.413Z,102208.98
2019-01-03T10:50:29.586Z,102202.63
2019-01-03T10:52:59.052Z,102202.92
2019-01-03T10:55:28.269Z,102197.05
2019-01-03T10:57:57.766Z,102202.95
2019-01-03T11:00:27.453Z,102207.60
2019-01-03T11:02:56.924Z,102204.23
2019-01-03T11:05:26.494Z,102213.28
2019-01-03T11:07:55.983Z,102204.85
2019-01-03T11:10:25.176Z,102209.66
2019-01-03T11:12:54.660Z,102202.70
2019-01-03T11:15:23.881Z,102190.89
2019-01-03T11:17:53.387Z,102200.93
2019-01-03T11:20:22.858Z,102208.05
2019-01-03T11:22:52.371Z,102205.57
2019-01-03T11:25:21.852Z,102203.55
2019-01-03T11:27:51.352Z,102206.93
2019-01-03T11:30:21.283Z,102188.85
2019-01-03T11:32:50.771Z,102192.35
2019-01-03T11:35:20.249Z,102189.73
2019-01-03T11:37:50.228Z,102191.45
2019-01-03T11:40:19.693Z,102192.98
2019-01-03T11:42:48.940Z,102185.06
2019-01-03T11:45:18.388Z,102189.57
2019-01-03T11:47:47.919Z,102188.78
2019-01-03T11:50:17.125Z,102186.96
2019-01-03T11:52:46.332Z,102185.98
2019-01-03T11:55:16.217Z,102180.61
2019-01-03T11:57:45.711Z,102174.94
2019-01-03T12:00:15.191Z,102170.73
2019-01-03T12:02:44.415Z,102173.28
2019-01-03T12:05:13.890Z,102167.25
2019-01-03T12:07:43.114Z,102168.77
2019-01-03T12:10:12.918Z,102157.70
2019-01-03T12:12:42.136Z,102161.06
2019-01-03T12:15:11.317Z,102153.00
2019-01-03T12:17:59.870Z,102160.22
2019-01-03T12:20:29.910Z,102149.99
2019-01-03T12:22:59.528Z,102151.69
2019-01-03T12:25:29.024Z,102143.47
2019-01-03T12:27:58.221Z,102139.92
2019-01-03T12:30:27.717Z,102144.30
2019-01-03T12:32:57.194Z,102141.94
2019-01-03T12:35:26.433Z,102142.44
2019-01-03T12:37:55.791Z,102133.55
2019-01-03T12:40:25.245Z,102134.05
2019-01-03T12:42:54.465Z,102132.54
2019-01-03T12:45:24.286Z,102134.71
2019-01-03T12:47:54.171Z,102134.70
2019-01-03T12:50:23.682Z,102140.75
2019-01-03T12:52:53.127Z,102155.72
2019-01-03T12:55:22.633Z,102159.72
2019-01-03T12:57:52.097Z,102159.92
2019-01-03T13:00:40.382Z,102160.77
2019-01-03T13:03:09.862Z,102160.24
2019-01-03T13:05:39.326Z,102163.25
2019-01-03T13:08:09.443Z,102159.08
2019-01-03T13:10:38.921Z,102158.23
2019-01-03T13:13:08.552Z,102144.80
2019-01-03T13:15:56.842Z,102138.07
2019-01-03T13:18:26.591Z,102132.02
2019-01-03T13:20:56.078Z,102135.05
2019-01-03T13:23:25.310Z,102136.22
2019-01-03T13:25:54.859Z,102140.11
2019-01-03T13:28:24.332Z,102135.55
2019-01-03T13:30:54.168Z,102137.40
2019-01-03T13:33:24.032Z,102139.77
2019-01-03T13:35:53.553Z,102141.11
2019-01-03T13:38:22.752Z,102151.68
2019-01-03T13:40:52.130Z,102151.33
2019-01-03T13:43:21.642Z,102159.08
2019-01-03T13:45:50.848Z,102159.22
2019-01-03T13:48:20.341Z,102150.52
2019-01-03T13:50:49.812Z,102156.36
2019-01-03T13:53:19.785Z,102153.36
2019-01-03T13:55:49.285Z,102164.95
2019-01-03T13:58:18.758Z,102164.95
2019-01-03T14:00:48.681Z,102162.41
2019-01-03T14:03:18.166Z,102150.63
2019-01-03T14:05:47.658Z,102156.86
2019-01-03T14:08:17.737Z,102151.98
2019-01-03T14:10:47.222Z,102150.49
2019-01-03T14:13:16.696Z,102145.79
2019-01-03T14:15:46.546Z,102147.45
2019-01-03T14:18:16.519Z,102147.12
2019-01-03T14:20:46.327Z,102148.13
2019-01-03T14:23:15.817Z,102149.29
2019-01-03T14:25:45.279Z,102153.00
2019-01-03T14:28:14.744Z,102163.08
2019-01-03T14:30:44.219Z,102165.05
2019-01-03T14:33:13.424Z,102162.23
2019-01-03T14:35:42.887Z,102168.59
2019-01-03T14:38:12.095Z,102162.55
2019-01-03T14:40:41.287Z,102163.75
2019-01-03T14:43:10.668Z,102160.21
2019-01-03T14:45:40.139Z,102165.09
2019-01-03T14:48:09.885Z,102157.53
2019-01-03T14:50:39.354Z,102161.73
2019-01-03T14:53:09.372Z,102165.59
2019-01-03T14:55:38.961Z,102166.09
2019-01-03T14:58:09.302Z,102163.40
2019-01-03T15:00:39.110Z,102160.71
2019-01-03T15:03:27.328Z,102164.59
2019-01-03T15:05:56.883Z,102163.75
2019-01-03T15:08:26.384Z,102159.22
2019-01-03T15:10:55.867Z,102148.48
2019-01-03T15:13:25.410Z,102150.98
2019-01-03T15:15:54.641Z,102150.49
2019-01-03T15:18:24.094Z,102151.63
2019-01-03T15:20:53.591Z,102148.30
2019-01-03T15:23:23.052Z,102153.67
2019-01-03T15:25:52.573Z,102159.86
2019-01-03T15:28:22.017Z,102150.14
2019-01-03T15:30:51.264Z,102152.65
2019-01-03T15:33:21.016Z,102149.78
2019-01-03T15:35:50.372Z,102155.51
2019-01-03T15:38:19.564Z,102150.95
2019-01-03T15:40:49.119Z,102155.64
2019-01-03T15:43:18.938Z,102153.63
2019-01-03T15:45:48.433Z,102152.78
2019-01-03T15:48:22.828Z,102157.98
2019-01-03T15:50:52.323Z,102159.50
2019-01-03T15:53:22.050Z,102152.11
2019-01-03T15:55:51.266Z,102161.52
2019-01-03T15:58:21.544Z,102163.53
2019-01-03T16:00:50.764Z,102160.17
2019-01-03T16:03:19.958Z,102163.03
2019-01-03T16:05:49.165Z,102165.22
2019-01-03T16:08:18.612Z,102165.55
2019-01-03T16:10:47.876Z,102167.91
2019-01-03T16:13:17.323Z,102170.73
2019-01-03T16:15:46.896Z,102171.58
2019-01-03T16:18:16.409Z,102173.28
2019-01-03T16:20:45.916Z,102174.09
2019-01-03T16:23:15.101Z,102170.23
2019-01-03T16:25:44.584Z,102178.13
2019-01-03T16:30:49.039Z,102182.02
2019-01-03T16:33:18.259Z,102185.87
2019-01-03T16:35:48.267Z,102178.80
2019-01-03T16:38:18.375Z,102180.67
2019-01-03T16:40:47.568Z,102183.17
2019-01-03T16:43:17.111Z,102180.98
2019-01-03T16:45:46.324Z,102177.62
2019-01-03T16:48:15.544Z,102174.94
2019-01-03T16:50:44.740Z,102186.54
2019-01-03T16:53:14.242Z,102183.67
2019-01-03T16:55:43.452Z,102183.00
2019-01-03T16:58:12.918Z,102180.67
2019-01-03T17:00:42.116Z,102180.00
2019-01-03T17:03:11.701Z,102173.60
2019-01-03T17:05:41.162Z,102178.13
2019-01-03T17:08:10.638Z,102183.67
2019-01-03T17:10:40.098Z,102175.92
2019-01-03T17:13:09.585Z,102176.45
2019-01-03T17:15:39.423Z,102181.16
2019-01-03T17:18:09.337Z,102182.15
2019-01-03T17:20:38.557Z,102188.38
2019-01-03T17:23:07.810Z,102188.05
2019-01-03T17:25:37.027Z,102181.83
2019-01-03T17:28:06.251Z,102184.66
2019-01-03T17:30:36.024Z,102183.17
2019-01-03T17:33:05.849Z,102192.41
2019-01-03T17:35:35.327Z,102193.08
2019-01-03T17:38:05.102Z,102194.77
2019-01-03T17:40:34.627Z,102189.03
2019-01-03T17:43:03.869Z,102193.91
2019-01-03T17:45:33.404Z,102193.57
2019-01-03T17:48:02.880Z,102188.36
2019-01-03T17:50:36.310Z,102197.10
2019-01-03T17:53:03.600Z,102191.73
2019-01-03T17:55:32.930Z,102193.25
2019-01-03T17:58:10.450Z,102191.55
2019-01-03T18:00:41.343Z,102194.06
2019-01-03T18:03:11.598Z,102194.91
2019-01-03T18:05:41.089Z,102201.61
2019-01-03T18:08:10.620Z,102208.83
2019-01-03T18:10:39.987Z,102197.59
2019-01-03T18:13:09.452Z,102202.65
2019-01-03T18:15:39.088Z,102201.12
2019-01-03T18:18:08.956Z,102200.78
2019-01-03T18:20:38.174Z,102194.73
2019-01-03T18:23:07.626Z,102201.44
2019-01-03T18:25:36.926Z,102197.10
2019-01-03T18:28:06.696Z,102192.08
2019-01-03T18:30:36.226Z,102201.80
2019-01-03T18:33:05.686Z,102190.38
2019-01-03T18:35:35.180Z,102193.73
2019-01-03T18:38:04.766Z,102189.22
2019-01-03T18:40:34.291Z,102186.48
2019-01-03T18:43:03.797Z,102191.72
2019-01-03T18:45:33.574Z,102182.45
2019-01-03T18:48:03.086Z,102183.30
2019-01-03T18:50:32.383Z,102182.94
2019-01-03T18:53:01.607Z,102179.59
2019-01-03T18:55:30.842Z,102190.33
2019-01-03T18:58:00.706Z,102190.69
2019-01-03T19:00:30.188Z,102186.47
2019-01-03T19:03:00.100Z,102183.30
2019-01-03T19:05:29.339Z,102181.59
2019-01-03T19:07:59.226Z,102177.75
2019-01-03T19:10:28.561Z,102179.77
2019-01-03T19:12:57.852Z,102187.98
2019-01-03T19:15:27.298Z,102192.16
2019-01-03T19:17:56.888Z,102191.17
2019-01-03T19:20:26.360Z,102192.16
2019-01-03T19:22:55.881Z,102199.77
2019-01-03T19:25:25.076Z,102200.94
2019-01-03T19:27:54.307Z,102204.11
2019-01-03T19:30:23.510Z,102202.45
2019-01-03T19:32:52.730Z,102204.61
2019-01-03T19:35:21.991Z,102200.08
2019-01-03T19:37:51.227Z,102202.95
2019-01-03T19:40:20.424Z,102208.31
2019-01-03T19:42:50.279Z,102205.45
2019-01-03T19:45:19.454Z,102213.14
2019-01-03T19:47:48.668Z,102208.14
2019-01-03T19:50:20.071Z,102209.98
2019-01-03T19:52:49.856Z,102216.68
2019-01-03T19:55:19.116Z,102218.88
2019-01-03T19:57:48.343Z,102224.56
2019-01-03T20:00:17.569Z,102224.73
2019-01-03T20:02:46.764Z,102224.91
2019-01-03T20:05:15.971Z,102229.60
2019-01-03T20:07:46.032Z,102225.22
2019-01-03T20:10:15.650Z,102227.91
2019-01-03T20:12:44.860Z,102225.03
2019-01-03T20:15:14.530Z,102220.83
2019-01-03T20:17:43.736Z,102218.80
2019-01-03T20:20:13.193Z,102228.56
2019-01-03T20:22:42.395Z,102232.38
2019-01-03T20:25:12.563Z,102229.17
2019-01-03T20:28:00.979Z,102223.67
2019-01-03T20:30:30.200Z,102221.30
2019-01-03T20:32:59.725Z,102217.45
2019-01-03T20:35:29.002Z,102211.41
2019-01-03T20:37:58.187Z,102214.77
2019-01-03T20:40:27.497Z,102226.18
2019-01-03T20:42:56.725Z,102224.83
2019-01-03T20:45:25.947Z,102220.13
2019-01-03T20:47:55.136Z,102214.45
2019-01-03T20:50:24.349Z,102208.23
2019-01-03T20:52:53.907Z,102212.40
2019-01-03T20:55:23.410Z,102210.73
2019-01-03T20:57:52.618Z,102198.12
2019-01-03T21:00:22.123Z,102198.98
2019-01-03T21:02:51.338Z,102193.95
2019-01-03T21:05:21.061Z,102208.16
2019-01-03T21:07:50.364Z,102209.02
2019-01-03T21:10:19.642Z,102208.50
2019-01-03T21:12:48.858Z,102198.59
2019-01-03T21:15:19.872Z,102200.66
2019-01-03T21:17:49.098Z,102195.30
2019-01-03T21:20:18.684Z,102192.61
2019-01-03T21:22:47.907Z,102194.45
2019-01-03T21:25:17.655Z,102192.93
2019-01-03T21:27:47.166Z,102187.92
2019-01-03T21:30:18.567Z,102189.92
2019-01-03T21:32:47.866Z,102186.27
2019-01-03T21:35:17.061Z,102198.67
2019-01-03T21:37:46.265Z,102195.67
2019-01-03T21:40:15.560Z,102195.00
2019-01-03T21:42:44.837Z,102202.50
2019-01-03T21:45:14.092Z,102200.02
2019-01-03T21:47:43.322Z,102208.05
2019-01-03T21:53:21.844Z,102204.33
2019-01-03T21:55:51.062Z,102210.05
2019-01-03T21:58:20.285Z,102204.83
2019-01-03T22:00:49.821Z,102207.87
2019-01-03T22:03:19.028Z,102206.17
2019-01-03T22:05:48.481Z,102213.42
2019-01-03T22:08:17.690Z,102222.45
2019-01-03T22:10:46.877Z,102217.09
2019-01-03T22:13:16.227Z,102223.86
2019-01-03T22:15:45.485Z,102224.16
2019-01-03T22:18:14.993Z,102219.96
2019-01-03T22:20:44.238Z,102225.83
2019-01-03T22:23:13.481Z,102227.63
2019-01-03T22:25:42.671Z,102223.13
2019-01-03T22:28:11.878Z,102229.38
2019-01-03T22:30:41.089Z,102234.59
2019-01-03T22:33:10.603Z,102235.22
2019-01-03T22:35:40.082Z,102232.89
2019-01-03T22:38:09.275Z,102237.09
2019-01-03T22:40:38.775Z,102232.03
2019-01-03T22:43:08.037Z,102224.81
2019-01-03T22:45:37.243Z,102229.33
2019-01-03T22:48:06.425Z,102229.16
2019-01-03T22:50:35.649Z,102225.44
2019-01-03T22:53:05.129Z,102228.12
2019-01-03T22:55:34.635Z,102223.47
2019-01-03T22:58:04.163Z,102225.59
2019-01-03T23:01:16.901Z,102227.92
2019-01-03T23:03:46.103Z,102228.38
2019-01-03T23:06:15.323Z,102236.33
2019-01-03T23:08:44.519Z,102233.14
2019-01-03T23:11:14.098Z,102233.81
2019-01-03T23:13:43.284Z,102233.73
2019-01-03T23:16:12.626Z,102235.06
2019-01-03T23:18:41.811Z,102239.73
2019-01-03T23:21:11.113Z,102237.89
2019-01-03T23:23:40.638Z,102235.17
2019-01-03T23:26:09.895Z,102246.78
2019-01-03T23:28:39.422Z,102249.94
2019-01-03T23:31:08.653Z,102245.58
2019-01-03T23:33:37.868Z,102245.62
2019-01-03T23:36:07.120Z,102253.00
2019-01-03T23:38:37.151Z,102241.24
2019-01-03T23:41:06.381Z,102242.88
2019-01-03T23:46:12.662Z,102241.91
2019-01-03T23:48:41.854Z,102232.12
2019-01-03T23:51:15.046Z,102231.13
2019-01-03T23:53:44.274Z,102226.09
2019-01-03T23:56:13.510Z,102223.69
2019-01-03T23:58:43.001Z,102217.45
